Time;durP1;ratioP1;P1;durP2;ratioP2;P2;SDS_P1;SDS_P2;PMS_P1;PMS_P2;Temp;Humidity;BMP_temperature;BMP_pressure;BME280_temperature;BME280_humidity;BME280_pressure;Samples;Min_cycle;Max_cycle;Signal;HPM_P1;HPM_P2
2021/06/27 00:01:06;;;;;;;9.48;3.20;;;;;;;20.77;68.09;94731.50;2984032;39;20452;-79
2021/06/27 00:03:09;;;;;;;7.55;3.03;;;;;;;20.77;68.57;94722.72;2992781;39;20269;-81
2021/06/27 00:05:13;;;;;;;10.43;3.95;;;;;;;20.86;68.37;94726.69;2983751;39;20087;-79
2021/06/27 00:07:15;;;;;;;9.43;3.50;;;;;;;20.80;68.68;94731.06;2993503;39;20142;-80
2021/06/27 00:09:16;;;;;;;6.82;3.35;;;;;;;20.54;69.79;94728.63;2993304;39;20043;-80
2021/06/27 00:11:18;;;;;;;6.90;3.30;;;;;;;20.36;70.35;94734.75;2994389;39;20348;-81
2021/06/27 00:13:20;;;;;;;9.38;3.78;;;;;;;20.34;70.29;94740.28;2992598;39;20162;-81
2021/06/27 00:15:37;;;;;;;8.40;3.38;;;;;;;20.46;70.23;94743.88;2992540;39;20067;-81
2021/06/27 00:17:39;;;;;;;8.30;3.65;;;;;;;20.61;69.64;94729.44;2983365;39;20087;-78
2021/06/27 00:19:41;;;;;;;5.22;2.60;;;;;;;20.73;68.75;94729.50;2993196;39;20484;-80
2021/06/27 00:21:43;;;;;;;5.28;3.00;;;;;;;20.84;67.62;94726.09;2983575;39;20059;-71
2021/06/27 00:23:48;;;;;;;12.48;3.40;;;;;;;20.91;67.61;94726.84;2992947;39;20063;-71
2021/06/27 00:25:50;;;;;;;10.77;3.05;;;;;;;20.99;67.50;94721.22;2992844;39;20078;-72
2021/06/27 00:27:52;;;;;;;8.90;3.20;;;;;;;20.99;66.64;94717.72;2983010;39;20055;-72
2021/06/27 00:29:54;;;;;;;15.85;3.45;;;;;;;21.01;67.13;94718.31;2982834;39;20420;-73
2021/06/27 00:31:56;;;;;;;10.07;3.13;;;;;;;21.08;66.97;94721.75;2982431;39;20111;-72
2021/06/27 00:33:58;;;;;;;8.95;3.13;;;;;;;21.11;66.38;94713.28;2992609;39;20103;-72
2021/06/27 00:36:00;;;;;;;7.38;3.47;;;;;;;21.10;66.36;94716.16;2980895;39;20083;-72
2021/06/27 00:38:02;;;;;;;12.10;2.95;;;;;;;21.06;66.57;94713.97;2978361;39;20326;-71
2021/06/27 00:40:10;;;;;;;6.82;3.10;;;;;;;20.63;68.68;94720.19;2992673;39;20131;-71
2021/06/27 00:42:12;;;;;;;8.20;3.53;;;;;;;19.92;71.29;94720.59;2991312;39;20071;-71
2021/06/27 00:44:15;;;;;;;10.10;3.55;;;;;;;19.60;72.92;94713.44;2991553;39;20067;-71
2021/06/27 00:46:17;;;;;;;11.13;3.33;;;;;;;19.65;72.98;94716.25;2991017;39;20427;-72
2021/06/27 00:48:19;;;;;;;8.23;3.45;;;;;;;19.81;72.36;94712.31;2982535;39;20048;-72
2021/06/27 00:50:23;;;;;;;8.23;3.15;;;;;;;20.00;71.11;94715.84;2992590;39;20143;-72
2021/06/27 00:52:25;;;;;;;8.75;3.13;;;;;;;20.23;70.10;94709.09;2992656;39;20107;-72
2021/06/27 00:54:27;;;;;;;9.38;3.20;;;;;;;20.42;69.27;94701.97;2982715;39;20088;-72
2021/06/27 00:56:28;;;;;;;7.95;3.13;;;;;;;20.54;68.85;94707.34;2992617;39;20378;-72
2021/06/27 00:58:32;;;;;;;5.88;3.13;;;;;;;20.66;68.50;94702.97;2992213;39;20750;-72
2021/06/27 01:00:38;;;;;;;9.88;3.28;;;;;;;20.76;67.84;94703.25;2990950;39;20075;-72
2021/06/27 01:02:41;;;;;;;10.02;3.08;;;;;;;20.83;67.51;94705.84;2982413;39;20451;-72
2021/06/27 01:04:43;;;;;;;7.65;3.33;;;;;;;20.88;67.51;94708.66;2982753;39;20091;-72
2021/06/27 01:06:44;;;;;;;6.18;2.88;;;;;;;20.91;67.44;94702.06;2991923;39;20059;-72
2021/06/27 01:08:46;;;;;;;7.13;3.35;;;;;;;20.94;67.37;94691.78;2991675;39;20131;-72
2021/06/27 01:10:49;;;;;;;6.97;2.60;;;;;;;20.99;67.68;94691.94;2981795;39;20458;-72
2021/06/27 01:12:52;;;;;;;4.32;2.40;;;;;;;20.98;67.99;94690.31;2981979;39;20051;-71
2021/06/27 01:14:54;;;;;;;9.98;3.38;;;;;;;21.00;67.68;94690.09;2979958;39;20056;-73
2021/06/27 01:16:56;;;;;;;11.13;2.90;;;;;;;21.05;67.28;94685.69;2981490;39;20055;-72
2021/06/27 01:18:58;;;;;;;6.15;2.78;;;;;;;21.11;67.41;94680.53;2992408;39;20051;-71
2021/06/27 01:21:05;;;;;;;8.90;3.22;;;;;;;21.14;67.18;94683.53;2990672;39;20300;-71
2021/06/27 01:23:15;;;;;;;6.50;2.67;;;;;;;21.18;66.92;94683.91;2991573;39;20211;-72
2021/06/27 01:25:20;;;;;;;10.38;3.53;;;;;;;21.19;66.91;94677.56;2992244;39;20131;-72
2021/06/27 01:27:22;;;;;;;8.50;2.88;;;;;;;21.19;67.00;94675.69;2992809;39;20122;-72
2021/06/27 01:29:24;;;;;;;8.52;2.88;;;;;;;21.20;66.68;94666.66;2982158;39;20374;-71
2021/06/27 01:31:51;;;;;;;6.35;3.08;;;;;;;21.21;67.05;94662.16;2990928;39;20142;-72
2021/06/27 01:33:56;;;;;;;9.00;3.40;;;;;;;21.21;67.12;94659.50;2988678;39;20361;-72
2021/06/27 01:35:58;;;;;;;8.55;2.45;;;;;;;21.22;67.00;94663.78;2982822;39;20092;-73
2021/06/27 01:38:01;;;;;;;10.63;3.42;;;;;;;21.21;66.81;94668.28;2993947;39;20673;-72
2021/06/27 01:40:04;;;;;;;;;;;;;;;21.15;66.86;94658.53;2983422;39;20063;-72
2021/06/27 01:42:06;;;;;;;11.10;3.38;;;;;;;21.13;66.94;94652.63;2992004;39;19961;-72
2021/06/27 01:44:07;;;;;;;8.90;3.25;;;;;;;21.11;67.47;94662.69;2992313;39;20447;-72
2021/06/27 01:46:09;;;;;;;6.05;2.90;;;;;;;21.12;67.50;94672.28;2982445;39;20051;-71
2021/06/27 01:48:11;;;;;;;6.95;3.10;;;;;;;21.12;67.09;94674.94;2991711;39;20154;-72
2021/06/27 01:50:13;;;;;;;7.82;3.28;;;;;;;21.12;66.84;94679.47;2992021;39;20094;-71
2021/06/27 01:52:15;;;;;;;10.27;3.17;;;;;;;21.08;66.74;94679.13;2990287;39;20429;-72
2021/06/27 01:54:17;;;;;;;6.97;2.90;;;;;;;21.01;67.17;94683.72;2989368;39;20151;-72
2021/06/27 01:56:18;;;;;;;6.70;3.30;;;;;;;20.82;67.68;94685.56;2993772;39;20094;-79
2021/06/27 01:58:20;;;;;;;8.77;3.72;;;;;;;20.68;68.08;94679.59;2993718;39;20114;-80
2021/06/27 02:00:24;;;;;;;6.75;3.30;;;;;;;20.66;68.29;94676.34;2992388;39;20059;-81
2021/06/27 02:02:25;;;;;;;8.77;3.17;;;;;;;20.68;68.40;94668.16;2989795;39;20130;-80
2021/06/27 02:04:27;;;;;;;7.10;3.40;;;;;;;20.71;68.37;94673.81;2993764;39;20062;-79
2021/06/27 02:06:30;;;;;;;5.60;2.80;;;;;;;20.77;68.45;94672.13;2967637;39;20056;-80
2021/06/27 02:08:36;;;;;;;7.63;3.55;;;;;;;20.81;68.01;94678.63;2975569;39;20402;-82
2021/06/27 02:10:38;;;;;;;7.32;3.13;;;;;;;20.83;68.02;94666.72;2992351;39;20087;-79
2021/06/27 02:12:39;;;;;;;9.50;3.08;;;;;;;20.88;68.01;94667.91;2981593;39;20084;-79
2021/06/27 02:14:41;;;;;;;10.18;3.38;;;;;;;20.92;67.68;94666.41;2989339;39;20404;-79
2021/06/27 02:16:43;;;;;;;10.50;2.97;;;;;;;20.94;66.88;94669.66;2991497;39;20095;-80
2021/06/27 02:18:49;;;;;;;8.00;3.00;;;;;;;20.89;66.26;94664.19;2992551;39;20112;-80
2021/06/27 02:20:50;;;;;;;8.02;2.78;;;;;;;20.88;65.46;94670.56;2990335;39;20407;-79
2021/06/27 02:22:53;;;;;;;8.13;2.58;;;;;;;20.76;65.37;94666.00;2980819;39;20047;-79
2021/06/27 02:24:55;;;;;;;8.85;2.58;;;;;;;20.68;66.69;94655.66;2995860;39;20059;-79
2021/06/27 02:26:56;;;;;;;7.82;3.05;;;;;;;20.66;66.55;94655.84;2982989;39;20119;-79
2021/06/27 02:28:58;;;;;;;8.18;2.78;;;;;;;20.47;66.44;94659.53;2990669;39;20498;-80
2021/06/27 02:31:01;;;;;;;14.35;2.88;;;;;;;20.34;67.35;94668.47;2978983;39;20063;-80
2021/06/27 02:33:04;;;;;;;6.73;3.10;;;;;;;20.17;68.03;94667.41;2982805;39;20144;-80
2021/06/27 02:35:08;;;;;;;6.70;2.60;;;;;;;20.01;68.37;94658.97;2981826;39;20052;-80
2021/06/27 02:37:10;;;;;;;7.72;2.70;;;;;;;19.75;69.75;94660.00;2982057;39;20062;-80
2021/06/27 02:39:12;;;;;;;7.20;2.88;;;;;;;19.69;70.46;94658.19;2993248;39;20066;-79
2021/06/27 02:41:14;;;;;;;6.75;2.80;;;;;;;19.69;70.97;94671.47;2994139;39;20055;-79
2021/06/27 02:43:19;;;;;;;10.07;2.70;;;;;;;19.77;70.91;94670.44;2984198;39;20070;-79
2021/06/27 02:45:21;;;;;;;7.15;3.08;;;;;;;19.65;71.52;94672.91;2983274;39;20072;-80
2021/06/27 02:47:23;;;;;;;10.73;3.28;;;;;;;19.65;71.70;94671.06;2976450;39;20051;-72
2021/06/27 02:49:25;;;;;;;7.80;3.47;;;;;;;19.70;71.33;94677.63;2974273;39;20040;-71
2021/06/27 02:51:27;;;;;;;8.27;3.22;;;;;;;19.83;71.02;94674.84;2990546;39;20055;-72
2021/06/27 02:53:29;;;;;;;8.13;2.97;;;;;;;19.99;70.97;94676.16;2995015;39;20473;-71
2021/06/27 02:55:31;;;;;;;11.73;3.15;;;;;;;20.12;69.82;94681.38;2982449;39;20095;-73
2021/06/27 02:57:33;;;;;;;10.63;2.85;;;;;;;20.03;69.52;94680.03;2982169;39;20117;-72
2021/06/27 02:59:34;;;;;;;8.20;3.53;;;;;;;19.86;70.03;94687.72;2995119;39;20086;-72
2021/06/27 03:01:36;;;;;;;6.65;3.10;;;;;;;19.89;70.11;94683.81;2990398;39;20116;-73
2021/06/27 03:03:39;;;;;;;7.40;3.60;;;;;;;19.73;70.58;94693.16;2982705;39;20416;-72
2021/06/27 03:05:41;;;;;;;10.07;3.28;;;;;;;19.53;71.11;94699.38;2985933;39;20147;-72
2021/06/27 03:07:43;;;;;;;9.80;3.50;;;;;;;19.51;71.51;94704.09;2991283;39;20088;-71
2021/06/27 03:09:45;;;;;;;6.30;3.10;;;;;;;19.64;71.62;94703.19;2991882;39;20075;-71
2021/06/27 03:11:47;;;;;;;10.57;3.65;;;;;;;19.77;71.29;94705.78;2981920;39;20111;-72
2021/06/27 03:13:49;;;;;;;8.77;3.28;;;;;;;19.80;70.44;94710.66;2988304;39;20115;-72
2021/06/27 03:15:51;;;;;;;7.80;3.58;;;;;;;19.81;70.11;94706.97;2987279;39;20059;-71
2021/06/27 03:17:53;;;;;;;7.38;3.85;;;;;;;19.82;69.64;94713.09;2991503;39;20063;-71
2021/06/27 03:19:54;;;;;;;9.23;3.95;;;;;;;19.78;70.07;94706.59;2982135;39;20329;-72
2021/06/27 03:21:56;;;;;;;17.45;3.90;;;;;;;19.92;69.97;94710.78;2988653;39;20442;-71
2021/06/27 03:23:58;;;;;;;9.52;3.67;;;;;;;20.06;69.18;94703.50;2991738;39;20106;-71
2021/06/27 03:26:00;;;;;;;8.05;3.42;;;;;;;20.22;68.78;94699.50;2987849;39;20055;-71
2021/06/27 03:28:03;;;;;;;8.82;3.58;;;;;;;20.32;68.32;94694.47;2973513;39;20056;-72
2021/06/27 03:30:06;;;;;;;7.95;3.13;;;;;;;20.40;68.26;94688.06;2978704;39;20146;-71
2021/06/27 03:32:08;;;;;;;8.07;3.38;;;;;;;20.51;67.80;94689.19;2987982;39;20055;-71
2021/06/27 03:34:10;;;;;;;6.38;3.05;;;;;;;20.53;67.62;94695.91;2992078;39;20071;-81
2021/06/27 03:36:11;;;;;;;9.57;3.33;;;;;;;20.51;67.69;94694.50;2982333;39;20815;-80
2021/06/27 03:38:32;;;;;;;16.58;4.25;;;;;;;20.51;67.49;94697.97;2994952;39;20439;-80
2021/06/27 03:40:34;;;;;;;14.43;4.57;;;;;;;20.48;67.84;94706.41;2987834;39;20050;-79
2021/06/27 03:42:36;;;;;;;10.63;3.58;;;;;;;20.23;68.07;94706.44;2986081;39;20055;-79
2021/06/27 03:44:38;;;;;;;7.32;3.42;;;;;;;20.15;68.69;94704.03;2992940;39;20352;-81
2021/06/27 03:46:39;;;;;;;11.52;3.63;;;;;;;20.07;69.33;94701.66;2991692;39;20070;-80
2021/06/27 03:48:41;;;;;;;11.38;3.92;;;;;;;20.00;70.04;94701.72;2993292;39;20074;-80
2021/06/27 03:50:43;;;;;;;10.52;3.75;;;;;;;19.89;70.36;94711.19;2983948;39;20082;-80
2021/06/27 03:52:47;;;;;;;10.07;3.55;;;;;;;19.87;70.70;94715.13;2992518;39;20106;-80
2021/06/27 03:54:49;;;;;;;6.70;3.45;;;;;;;19.84;70.99;94705.72;2982152;39;20071;-80
2021/06/27 03:56:50;;;;;;;10.30;4.18;;;;;;;19.82;70.83;94708.59;2997026;39;20130;-82
2021/06/27 03:58:54;;;;;;;8.40;4.20;;;;;;;19.83;71.07;94709.41;2993938;39;20361;-80
2021/06/27 04:00:56;;;;;;;9.35;3.55;;;;;;;19.99;70.58;94703.56;2993027;39;20131;-78
2021/06/27 04:02:58;;;;;;;6.93;3.40;;;;;;;20.22;69.81;94712.78;2993104;39;20058;-79
2021/06/27 04:04:59;;;;;;;9.95;3.88;;;;;;;20.24;68.78;94700.91;2993338;39;20414;-80
2021/06/27 04:07:01;;;;;;;15.77;3.65;;;;;;;20.25;68.40;94707.84;2992693;39;20412;-80
2021/06/27 04:09:03;;;;;;;9.95;3.72;;;;;;;20.34;68.85;94708.38;2993620;39;20214;-78
2021/06/27 04:11:05;;;;;;;11.52;3.67;;;;;;;20.53;68.12;94697.75;2980364;39;20131;-73
2021/06/27 04:13:07;;;;;;;10.38;3.90;;;;;;;20.67;67.67;94701.91;2992762;39;20049;-72
2021/06/27 04:15:10;;;;;;;7.95;3.42;;;;;;;20.81;67.43;94706.06;2991529;39;20420;-79
2021/06/27 04:17:13;;;;;;;9.68;3.75;;;;;;;20.93;67.08;94708.81;2983467;39;20048;-79
2021/06/27 04:19:15;;;;;;;9.25;3.63;;;;;;;20.99;66.23;94718.56;2983542;39;20083;-80
2021/06/27 04:21:16;;;;;;;7.68;3.80;;;;;;;21.07;65.95;94717.44;2993030;39;20443;-80
2021/06/27 04:23:18;;;;;;;7.32;3.50;;;;;;;21.16;65.54;94717.94;2991373;39;20043;-81
2021/06/27 04:25:20;;;;;;;10.88;3.65;;;;;;;21.18;65.04;94716.69;2981635;39;20187;-79
2021/06/27 04:27:22;;;;;;;7.97;3.80;;;;;;;21.22;65.16;94714.38;2992982;39;20141;-80
2021/06/27 04:29:24;;;;;;;9.05;4.18;;;;;;;21.30;65.00;94716.75;2984708;39;20099;-78
2021/06/27 04:31:25;;;;;;;11.70;4.53;;;;;;;21.40;64.77;94719.69;2993998;39;20083;-80
2021/06/27 04:33:27;;;;;;;6.47;3.08;;;;;;;21.50;64.63;94731.69;2993630;39;20059;-81
2021/06/27 04:35:32;;;;;;;6.82;3.72;;;;;;;21.56;64.11;94725.44;2982163;39;20056;-82
2021/06/27 04:37:34;;;;;;;10.95;4.03;;;;;;;21.64;63.98;94725.94;2990594;39;20293;-80
2021/06/27 04:39:36;;;;;;;8.82;3.40;;;;;;;21.66;63.91;94725.69;2988453;39;20099;-82
2021/06/27 04:41:38;;;;;;;10.23;4.20;;;;;;;21.76;63.50;94728.63;2994385;39;20051;-80
2021/06/27 04:43:39;;;;;;;9.57;4.05;;;;;;;21.75;63.81;94736.88;2995015;39;20086;-78
2021/06/27 04:45:42;;;;;;;9.13;4.22;;;;;;;21.62;63.61;94732.53;2999652;39;20078;-80
2021/06/27 04:47:44;;;;;;;11.25;4.22;;;;;;;21.58;64.39;94742.84;2993437;39;20057;-79
2021/06/27 04:49:45;;;;;;;10.68;4.68;;;;;;;21.42;64.21;94736.31;2992383;39;20089;-81
2021/06/27 04:51:47;;;;;;;10.85;4.18;;;;;;;21.30;64.67;94740.72;2992719;39;20464;-80
2021/06/27 04:53:49;;;;;;;9.98;4.05;;;;;;;21.31;65.30;94742.34;2983019;39;20060;-78
2021/06/27 04:55:51;;;;;;;9.38;3.97;;;;;;;21.36;65.11;94742.50;2993776;39;20070;-80
2021/06/27 04:57:52;;;;;;;11.35;4.80;;;;;;;21.51;64.18;94741.28;2993276;39;20178;-80
2021/06/27 04:59:54;;;;;;;10.20;4.07;;;;;;;21.47;64.21;94747.09;2976067;39;20436;-81
2021/06/27 05:01:56;;;;;;;8.95;4.10;;;;;;;21.49;64.58;94744.19;2992818;39;20063;-81
2021/06/27 05:03:58;;;;;;;8.70;4.22;;;;;;;21.63;64.08;94744.81;2984665;39;20039;-79
2021/06/27 05:05:59;;;;;;;8.80;3.90;;;;;;;21.78;63.42;94741.75;2984689;39;20188;-79
2021/06/27 05:08:02;;;;;;;11.63;4.72;;;;;;;21.92;63.57;94748.50;2984075;39;20104;-80
2021/06/27 05:10:05;;;;;;;8.32;4.65;;;;;;;22.05;62.80;94742.97;2985281;39;20305;-83
2021/06/27 05:12:07;;;;;;;10.15;4.82;;;;;;;21.96;62.89;94743.50;2990189;39;20059;-82
2021/06/27 05:14:09;;;;;;;8.68;4.35;;;;;;;22.05;62.81;94744.84;2987266;39;20075;-83
2021/06/27 05:16:11;;;;;;;9.02;4.45;;;;;;;21.77;63.22;94743.59;2999559;39;20384;-81
2021/06/27 05:18:13;;;;;;;13.35;4.60;;;;;;;21.71;64.39;94744.50;2997172;39;20059;-82
2021/06/27 05:20:15;;;;;;;8.68;4.47;;;;;;;21.46;64.67;94739.31;2984419;39;20050;-82
2021/06/27 05:22:17;;;;;;;9.75;4.60;;;;;;;21.41;64.86;94741.81;2993562;39;20062;-81
2021/06/27 05:24:19;;;;;;;8.25;4.25;;;;;;;21.62;64.70;94748.53;2994503;39;20250;-80
2021/06/27 05:26:21;;;;;;;17.00;4.78;;;;;;;21.88;63.84;94736.69;2995258;39;20057;-82
2021/06/27 05:28:22;;;;;;;12.27;4.20;;;;;;;22.09;63.23;94729.97;2985138;39;20116;-81
2021/06/27 05:30:24;;;;;;;7.97;3.95;;;;;;;22.35;62.47;94731.44;2998104;39;20070;-81
2021/06/27 05:32:26;;;;;;;10.38;3.88;;;;;;;22.53;62.39;94727.84;2984483;39;20040;-83
2021/06/27 05:34:30;;;;;;;8.63;4.07;;;;;;;22.58;62.20;94730.59;2989534;39;20327;-82
2021/06/27 05:36:37;;;;;;;8.32;3.80;;;;;;;22.45;62.53;94741.53;2995181;39;20071;-81
2021/06/27 05:38:39;;;;;;;11.55;4.35;;;;;;;21.93;63.03;94738.66;2984141;39;20158;-81
2021/06/27 05:40:41;;;;;;;12.85;4.40;;;;;;;21.78;64.49;94731.06;2992111;39;20106;-81
2021/06/27 05:42:43;;;;;;;7.20;3.70;;;;;;;21.64;63.61;94739.28;2993922;39;20047;-81
2021/06/27 05:44:45;;;;;;;13.05;3.95;;;;;;;21.62;64.47;94743.22;2975040;39;20056;-84
2021/06/27 05:46:47;;;;;;;7.00;4.93;;;;;;;21.74;64.98;94745.91;2993134;39;20444;-83
2021/06/27 05:48:49;;;;;;;12.15;3.90;;;;;;;21.64;64.54;94747.28;2983213;39;20062;-82
2021/06/27 05:50:50;;;;;;;11.68;4.15;;;;;;;21.77;64.77;94740.94;2993668;39;20050;-80
2021/06/27 05:52:52;;;;;;;12.40;4.32;;;;;;;21.84;64.39;94744.31;2982026;39;20448;-81
2021/06/27 05:54:54;;;;;;;12.85;4.28;;;;;;;22.01;63.52;94749.81;2993328;39;20131;-81
2021/06/27 05:56:56;;;;;;;7.38;3.70;;;;;;;22.12;63.12;94744.72;2991602;39;20166;-81
2021/06/27 05:58:57;;;;;;;8.80;4.03;;;;;;;21.99;62.76;94746.56;2992754;39;20150;-79
2021/06/27 06:00:59;;;;;;;10.13;4.03;;;;;;;22.10;63.28;94750.28;2993010;39;20082;-80
2021/06/27 06:03:01;;;;;;;9.30;4.22;;;;;;;21.82;64.00;94743.72;2993156;39;20396;-82
2021/06/27 06:05:04;;;;;;;12.88;4.22;;;;;;;21.47;64.54;94747.09;2984545;39;20043;-80
2021/06/27 06:07:06;;;;;;;5.45;3.20;;;;;;;21.36;64.06;94757.66;2984046;39;20175;-82
2021/06/27 06:09:08;;;;;;;8.00;3.17;;;;;;;21.37;63.81;94751.28;2998992;39;20050;-80
2021/06/27 06:11:10;;;;;;;9.38;3.90;;;;;;;21.37;63.84;94749.44;2997187;39;20408;-80
2021/06/27 06:13:12;;;;;;;8.07;2.80;;;;;;;21.72;62.22;94747.97;2991571;39;20405;-81
2021/06/27 06:15:14;;;;;;;7.25;3.28;;;;;;;21.92;62.04;94750.34;2983730;39;20429;-81
2021/06/27 06:17:17;;;;;;;8.60;2.78;;;;;;;22.29;61.24;94740.38;2977232;39;20103;-83
2021/06/27 06:19:20;;;;;;;8.15;3.15;;;;;;;22.61;60.23;94754.19;2997439;39;20043;-80
2021/06/27 06:21:22;;;;;;;8.82;3.05;;;;;;;22.32;60.69;94747.91;2993721;39;20047;-81
2021/06/27 06:23:23;;;;;;;7.00;3.63;;;;;;;22.62;60.50;94747.78;2993640;39;20051;-81
2021/06/27 06:25:25;;;;;;;13.27;2.97;;;;;;;22.98;59.63;94748.56;2993230;39;20078;-81
2021/06/27 06:27:27;;;;;;;7.65;2.70;;;;;;;23.09;59.33;94738.94;2993346;39;20067;-81
2021/06/27 06:29:29;;;;;;;10.82;3.40;;;;;;;23.03;58.94;94745.22;2984121;39;20051;-81
2021/06/27 06:31:30;;;;;;;7.22;2.72;;;;;;;22.84;60.26;94749.84;2983202;39;20413;-74
2021/06/27 06:33:32;;;;;;;9.88;2.55;;;;;;;22.99;59.65;94742.16;2992079;39;20067;-73
2021/06/27 06:35:34;;;;;;;9.48;3.13;;;;;;;22.90;60.07;94746.25;2982167;39;20043;-72
2021/06/27 06:37:36;;;;;;;7.60;2.60;;;;;;;22.84;59.61;94744.53;2990877;39;20087;-72
2021/06/27 06:39:37;;;;;;;9.40;2.78;;;;;;;22.49;60.80;94748.81;2991115;39;20051;-73
2021/06/27 06:41:39;;;;;;;9.27;2.33;;;;;;;22.39;61.45;94745.94;2982501;39;20051;-72
2021/06/27 06:43:41;;;;;;;6.90;2.28;;;;;;;22.33;61.89;94746.88;2991862;39;20059;-73
2021/06/27 06:45:43;;;;;;;7.53;2.10;;;;;;;22.70;60.62;94738.63;2981932;39;20063;-73
2021/06/27 06:47:44;;;;;;;4.60;2.22;;;;;;;23.07;60.07;94741.84;2991665;39;20166;-74
2021/06/27 06:49:46;;;;;;;9.43;2.53;;;;;;;23.36;58.97;94741.91;2992182;39;20055;-75
2021/06/27 06:51:48;;;;;;;4.50;2.42;;;;;;;23.47;58.44;94742.91;2973280;39;20452;-74
2021/06/27 06:53:50;;;;;;;5.28;2.53;;;;;;;22.93;60.74;94745.81;2987135;39;20403;-73
2021/06/27 06:55:57;;;;;;;8.63;2.88;;;;;;;22.70;60.99;94741.28;2986227;39;20128;-72
2021/06/27 06:57:58;;;;;;;7.85;3.28;;;;;;;22.79;60.63;94741.75;2982205;39;20139;-72
2021/06/27 07:00:00;;;;;;;8.32;2.60;;;;;;;23.16;59.84;94741.47;2991244;39;20146;-74
2021/06/27 07:02:02;;;;;;;8.07;2.70;;;;;;;23.19;60.04;94739.16;2990428;39;20270;-73
2021/06/27 07:04:04;;;;;;;8.85;3.25;;;;;;;23.33;59.43;94742.34;2982307;39;20588;-74
2021/06/27 07:06:06;;;;;;;4.55;2.42;;;;;;;23.41;59.25;94750.00;2991597;39;20063;-74
2021/06/27 07:08:07;;;;;;;9.48;3.30;;;;;;;23.31;59.56;94744.44;2982624;39;20094;-73
2021/06/27 07:10:10;;;;;;;6.95;3.25;;;;;;;23.67;58.98;94756.63;2991475;39;20422;-74
2021/06/27 07:12:11;;;;;;;6.68;2.88;;;;;;;23.84;57.59;94758.59;2982089;39;20056;-73
2021/06/27 07:14:13;;;;;;;10.10;3.03;;;;;;;24.05;57.18;94749.84;2993368;39;20047;-72
2021/06/27 07:16:15;;;;;;;10.70;3.30;;;;;;;23.92;57.76;94745.63;2982880;39;20064;-72
2021/06/27 07:18:17;;;;;;;7.82;3.42;;;;;;;23.55;59.42;94753.19;2978537;39;20444;-74
2021/06/27 07:20:19;;;;;;;8.43;3.30;;;;;;;23.38;59.74;94749.66;2987114;39;20063;-71
2021/06/27 07:22:20;;;;;;;7.35;3.22;;;;;;;23.46;60.53;94755.44;2992968;39;20323;-73
2021/06/27 07:24:22;;;;;;;9.20;2.97;;;;;;;23.42;59.77;94743.59;2993057;39;20070;-74
2021/06/27 07:26:24;;;;;;;8.32;3.15;;;;;;;23.12;60.74;94749.16;2974127;39;20071;-72
2021/06/27 07:28:26;;;;;;;8.57;2.88;;;;;;;23.31;60.42;94739.91;2993161;39;20104;-72
2021/06/27 07:30:28;;;;;;;6.38;2.63;;;;;;;23.23;59.90;94739.47;2992537;39;20066;-74
2021/06/27 07:32:29;;;;;;;9.48;3.03;;;;;;;23.29;60.31;94739.34;2991159;39;20154;-73
2021/06/27 07:34:31;;;;;;;11.68;3.00;;;;;;;23.42;59.57;94740.91;2992439;39;20315;-73
2021/06/27 07:36:33;;;;;;;6.25;3.10;;;;;;;23.77;58.60;94745.38;2973938;40;20054;-71
2021/06/27 07:38:35;;;;;;;7.57;3.25;;;;;;;24.17;57.68;94740.94;2992232;39;20089;-82
2021/06/27 07:40:38;;;;;;;7.30;3.35;;;;;;;24.18;56.89;94742.53;2982830;39;20206;-80
2021/06/27 07:42:40;;;;;;;10.80;3.83;;;;;;;24.53;57.22;94734.31;2991360;39;20050;-79
2021/06/27 07:44:42;;;;;;;9.30;2.78;;;;;;;24.83;55.24;94739.28;2993353;39;20058;-80
2021/06/27 07:46:44;;;;;;;7.05;3.35;;;;;;;24.64;55.64;94736.06;2983265;39;20083;-79
2021/06/27 07:48:46;;;;;;;7.45;2.80;;;;;;;24.45;55.68;94746.19;2992863;39;20086;-81
2021/06/27 07:50:48;;;;;;;9.00;2.83;;;;;;;24.59;56.17;94737.88;2980087;39;20444;-72
2021/06/27 07:52:49;;;;;;;12.02;3.17;;;;;;;24.50;55.95;94746.31;2974625;39;20060;-73
2021/06/27 07:54:51;;;;;;;10.20;3.05;;;;;;;24.63;55.89;94736.31;2983294;39;20074;-73
2021/06/27 07:56:55;;;;;;;4.25;2.90;;;;;;;24.48;55.08;94736.88;2983237;39;20436;-73
2021/06/27 07:58:57;;;;;;;6.78;2.85;;;;;;;24.62;54.30;94732.03;2992951;39;20317;-72
2021/06/27 08:00:59;;;;;;;6.47;3.00;;;;;;;24.69;54.68;94736.16;2992357;39;20363;-72
2021/06/27 08:03:01;;;;;;;6.18;2.90;;;;;;;24.96;54.67;94734.63;2983030;39;20448;-72
2021/06/27 08:05:08;;;;;;;5.80;3.22;;;;;;;24.63;52.90;94745.19;2983442;39;20051;-73
2021/06/27 08:07:10;;;;;;;7.90;2.90;;;;;;;24.80;52.72;94739.78;2992994;39;20078;-72
2021/06/27 08:09:12;;;;;;;5.80;2.55;;;;;;;24.92;50.64;94737.78;2984987;39;20420;-71
2021/06/27 08:11:14;;;;;;;5.22;3.13;;;;;;;24.90;51.87;94741.78;2982886;39;20063;-74
2021/06/27 08:13:16;;;;;;;5.40;2.60;;;;;;;25.27;52.12;94733.16;2992444;39;20066;-72
2021/06/27 08:15:19;;;;;;;8.32;2.17;;;;;;;25.67;51.69;94732.81;2991146;39;20406;-73
2021/06/27 08:17:21;;;;;;;7.30;2.50;;;;;;;25.77;50.02;94733.97;2978941;39;20116;-72
2021/06/27 08:19:22;;;;;;;6.60;2.97;;;;;;;25.83;50.33;94739.13;2983301;39;20395;-73
2021/06/27 08:21:24;;;;;;;6.03;3.05;;;;;;;25.63;50.62;94734.38;2984252;39;20052;-81
2021/06/27 08:23:26;;;;;;;6.72;2.65;;;;;;;25.88;49.79;94733.88;2989055;39;20139;-80
2021/06/27 08:25:28;;;;;;;6.57;2.83;;;;;;;25.65;48.23;94742.97;2993628;39;20621;-82
2021/06/27 08:27:30;;;;;;;5.68;2.83;;;;;;;25.52;47.92;94735.34;2993442;39;20441;-81
2021/06/27 08:29:31;;;;;;;5.47;2.72;;;;;;;25.85;48.67;94738.88;2992604;39;20284;-75
2021/06/27 08:31:33;;;;;;;3.55;2.22;;;;;;;25.41;46.55;94734.41;2992073;39;20347;-73
2021/06/27 08:33:36;;;;;;;4.80;3.60;;;;;;;25.41;47.33;94731.72;2992509;39;20055;-75
2021/06/27 08:35:38;;;;;;;8.25;3.88;;;;;;;25.36;46.83;94734.38;2992146;39;20123;-73
2021/06/27 08:37:41;;;;;;;7.82;3.38;;;;;;;25.41;47.55;94726.38;2977182;39;20109;-72
2021/06/27 08:39:43;;;;;;;7.13;2.88;;;;;;;25.77;46.89;94728.59;2986509;39;20087;-71
2021/06/27 08:41:45;;;;;;;9.90;2.97;;;;;;;25.92;47.19;94718.88;2989507;39;20059;-71
2021/06/27 08:43:46;;;;;;;5.38;3.03;;;;;;;25.64;47.25;94730.66;2985044;39;20081;-74
2021/06/27 08:45:51;;;;;;;12.80;3.78;;;;;;;25.92;47.60;94723.41;2983607;39;20151;-73
2021/06/27 08:47:53;;;;;;;6.10;2.70;;;;;;;25.78;46.91;94723.00;2982974;39;20095;-73
2021/06/27 08:49:55;;;;;;;10.05;3.72;;;;;;;26.08;46.90;94721.69;2974578;39;20048;-74
2021/06/27 08:51:57;;;;;;;8.18;2.70;;;;;;;25.98;44.90;94722.41;2983054;39;20051;-74
2021/06/27 08:53:59;;;;;;;5.60;2.60;;;;;;;26.03;44.35;94717.09;2981940;39;20078;-73
2021/06/27 08:56:05;;;;;;;5.72;2.20;;;;;;;26.05;44.59;94717.66;2983055;39;20168;-72
2021/06/27 08:58:09;;;;;;;5.78;2.55;;;;;;;26.12;43.70;94715.53;2992189;39;20067;-72
2021/06/27 09:00:12;;;;;;;9.52;2.75;;;;;;;26.21;44.20;94715.09;2990590;39;20063;-73
2021/06/27 09:02:14;;;;;;;6.63;2.90;;;;;;;26.56;44.64;94711.88;2984391;39;20042;-73
2021/06/27 09:04:18;;;;;;;10.35;3.38;;;;;;;26.65;44.17;94713.03;2984332;39;20070;-72
2021/06/27 09:06:30;;;;;;;7.15;3.17;;;;;;;26.50;43.73;94721.75;2996377;39;20114;-73
2021/06/27 09:08:31;;;;;;;5.95;3.00;;;;;;;26.64;43.84;94718.66;2982757;39;20143;-74
2021/06/27 09:10:33;;;;;;;5.95;2.58;;;;;;;26.47;43.52;94713.38;2992142;39;20127;-73
2021/06/27 09:12:50;;;;;;;6.53;2.72;;;;;;;26.52;43.57;94708.88;2992524;39;20423;-74
2021/06/27 09:14:55;;;;;;;8.13;2.70;;;;;;;26.11;44.67;94715.78;2974420;39;20056;-72
2021/06/27 09:17:16;;;;;;;9.35;2.90;;;;;;;25.87;45.27;94710.72;2982138;39;20481;-73
2021/06/27 09:19:18;;;;;;;4.47;2.53;;;;;;;26.12;44.81;94712.88;2992690;39;20067;-72
2021/06/27 09:21:21;;;;;;;5.20;2.42;;;;;;;26.23;44.08;94707.59;2992377;39;20412;-73
2021/06/27 09:23:35;;;;;;;8.77;2.85;;;;;;;26.09;44.73;94708.03;2992115;39;20042;-73
2021/06/27 09:25:36;;;;;;;;;;;;;;;26.36;44.31;94713.31;2993061;39;20162;-74
2021/06/27 09:27:39;;;;;;;5.80;2.70;;;;;;;26.72;43.96;94707.41;2982347;39;20187;-72
2021/06/27 09:29:40;;;;;;;12.07;2.75;;;;;;;27.12;43.00;94698.72;2992218;39;20099;-72
2021/06/27 09:31:43;;;;;;;7.25;2.80;;;;;;;27.43;42.59;94700.75;2992871;39;20154;-72
2021/06/27 09:33:45;;;;;;;7.03;2.80;;;;;;;27.67;42.01;94707.28;2982582;39;20070;-74
2021/06/27 09:36:11;;;;;;;10.93;3.03;;;;;;;27.91;42.38;94710.28;2982082;39;20047;-73